sensor_id;sensor_type;location;lat;lon;timestamp;temperature;humidity
17994;DHT22;9122;48.406;9.984;2022-11-15T00:01:31;10.00;97.80
17994;DHT22;9122;48.406;9.984;2022-11-15T00:12:41;10.00;97.80
17994;DHT22;9122;48.406;9.984;2022-11-15T00:27:45;9.90;97.80
17994;DHT22;9122;48.406;9.984;2022-11-15T00:42:47;9.80;97.90
17994;DHT22;9122;48.406;9.984;2022-11-15T00:45:33;9.70;97.90
17994;DHT22;9122;48.406;9.984;2022-11-15T01:26:48;9.70;98.10
17994;DHT22;9122;48.406;9.984;2022-11-15T01:45:47;9.60;98.00
17994;DHT22;9122;48.406;9.984;2022-11-15T01:48:34;9.60;98.00
17994;DHT22;9122;48.406;9.984;2022-11-15T02:11:30;9.40;97.80
17994;DHT22;9122;48.406;9.984;2022-11-15T02:26:44;9.30;97.90
17994;DHT22;9122;48.406;9.984;2022-11-15T03:15:27;9.00;98.70
17994;DHT22;9122;48.406;9.984;2022-11-15T03:30:35;8.90;98.60
17994;DHT22;9122;48.406;9.984;2022-11-15T03:33:21;8.90;98.50
17994;DHT22;9122;48.406;9.984;2022-11-15T03:40:00;8.90;98.40
17994;DHT22;9122;48.406;9.984;2022-11-15T03:47:22;8.80;98.30
17994;DHT22;9122;48.406;9.984;2022-11-15T03:57:58;8.70;98.00
17994;DHT22;9122;48.406;9.984;2022-11-15T04:13:03;8.70;98.10
17994;DHT22;9122;48.406;9.984;2022-11-15T04:28:06;8.60;98.10
17994;DHT22;9122;48.406;9.984;2022-11-15T04:30:51;8.50;98.20
17994;DHT22;9122;48.406;9.984;2022-11-15T05:05:01;8.40;98.60
17994;DHT22;9122;48.406;9.984;2022-11-15T05:07:45;8.40;98.60
17994;DHT22;9122;48.406;9.984;2022-11-15T05:10:29;8.40;98.70
17994;DHT22;9122;48.406;9.984;2022-11-15T05:17:08;8.40;98.50
17994;DHT22;9122;48.406;9.984;2022-11-15T05:24:01;8.40;98.50
17994;DHT22;9122;48.406;9.984;2022-11-15T05:30:40;8.40;98.20
17994;DHT22;9122;48.406;9.984;2022-11-15T07:07:54;8.20;98.90
17994;DHT22;9122;48.406;9.984;2022-11-15T07:10:52;8.30;98.90
17994;DHT22;9122;48.406;9.984;2022-11-15T07:53:20;9.90;96.70
17994;DHT22;9122;48.406;9.984;2022-11-15T08:34:11;10.60;95.40
17994;DHT22;9122;48.406;9.984;2022-11-15T09:12:38;11.30;93.80
17994;DHT22;9122;48.406;9.984;2022-11-15T09:23:10;11.60;93.40
17994;DHT22;9122;48.406;9.984;2022-11-15T09:34:17;11.90;93.20
17994;DHT22;9122;48.406;9.984;2022-11-15T09:53:14;12.30;92.80
17994;DHT22;9122;48.406;9.984;2022-11-15T10:43:28;15.50;83.70
17994;DHT22;9122;48.406;9.984;2022-11-15T11:10:20;14.20;87.20
17994;DHT22;9122;48.406;9.984;2022-11-15T11:30:47;14.00;87.60
17994;DHT22;9122;48.406;9.984;2022-11-15T11:42:58;14.00;86.50
17994;DHT22;9122;48.406;9.984;2022-11-15T11:51:36;14.00;86.60
17994;DHT22;9122;48.406;9.984;2022-11-15T11:57:52;14.10;86.20
17994;DHT22;9122;48.406;9.984;2022-11-15T12:00:44;14.10;86.30
17994;DHT22;9122;48.406;9.984;2022-11-15T12:04:39;14.10;85.60
17994;DHT22;9122;48.406;9.984;2022-11-15T12:13:11;14.20;85.10
17994;DHT22;9122;48.406;9.984;2022-11-15T12:16:20;14.30;85.40
17994;DHT22;9122;48.406;9.984;2022-11-15T12:19:08;14.30;85.90
17994;DHT22;9122;48.406;9.984;2022-11-15T12:22:02;14.30;85.40
17994;DHT22;9122;48.406;9.984;2022-11-15T12:27:59;14.40;85.20
17994;DHT22;9122;48.406;9.984;2022-11-15T12:30:50;14.40;84.70
17994;DHT22;9122;48.406;9.984;2022-11-15T12:33:47;14.40;84.50
17994;DHT22;9122;48.406;9.984;2022-11-15T12:36:41;14.40;85.10
17994;DHT22;9122;48.406;9.984;2022-11-15T12:43:54;14.40;85.00
17994;DHT22;9122;48.406;9.984;2022-11-15T12:52:10;14.30;86.20
17994;DHT22;9122;48.406;9.984;2022-11-15T12:54:56;14.30;86.00
17994;DHT22;9122;48.406;9.984;2022-11-15T12:57:42;14.30;85.80
17994;DHT22;9122;48.406;9.984;2022-11-15T13:00:46;14.30;85.70
17994;DHT22;9122;48.406;9.984;2022-11-15T13:03:31;14.30;85.60
17994;DHT22;9122;48.406;9.984;2022-11-15T13:06:44;14.30;85.80
17994;DHT22;9122;48.406;9.984;2022-11-15T13:15:56;14.20;85.90
17994;DHT22;9122;48.406;9.984;2022-11-15T13:18:42;14.20;85.80
17994;DHT22;9122;48.406;9.984;2022-11-15T13:21:26;14.20;85.70
17994;DHT22;9122;48.406;9.984;2022-11-15T13:24:29;14.10;85.50
17994;DHT22;9122;48.406;9.984;2022-11-15T13:27:19;14.10;85.40
17994;DHT22;9122;48.406;9.984;2022-11-15T13:30:04;14.10;86.20
17994;DHT22;9122;48.406;9.984;2022-11-15T13:32:49;14.10;87.10
17994;DHT22;9122;48.406;9.984;2022-11-15T13:35:38;14.10;87.40
17994;DHT22;9122;48.406;9.984;2022-11-15T13:38:29;14.00;87.80
17994;DHT22;9122;48.406;9.984;2022-11-15T13:41:29;14.00;88.40
17994;DHT22;9122;48.406;9.984;2022-11-15T13:44:22;14.00;89.10
17994;DHT22;9122;48.406;9.984;2022-11-15T13:47:13;14.00;89.60
17994;DHT22;9122;48.406;9.984;2022-11-15T13:49:59;14.00;90.00
17994;DHT22;9122;48.406;9.984;2022-11-15T13:52:44;13.90;90.10
17994;DHT22;9122;48.406;9.984;2022-11-15T13:55:31;13.90;90.20
17994;DHT22;9122;48.406;9.984;2022-11-15T13:58:17;13.90;90.40
17994;DHT22;9122;48.406;9.984;2022-11-15T14:01:03;13.80;90.40
17994;DHT22;9122;48.406;9.984;2022-11-15T14:03:58;13.80;90.60
17994;DHT22;9122;48.406;9.984;2022-11-15T14:06:49;13.80;90.80
17994;DHT22;9122;48.406;9.984;2022-11-15T14:09:39;13.80;91.00
17994;DHT22;9122;48.406;9.984;2022-11-15T14:12:35;13.80;91.10
17994;DHT22;9122;48.406;9.984;2022-11-15T14:21:27;13.80;91.60
17994;DHT22;9122;48.406;9.984;2022-11-15T14:24:20;13.80;91.80
17994;DHT22;9122;48.406;9.984;2022-11-15T14:27:26;13.80;91.90
17994;DHT22;9122;48.406;9.984;2022-11-15T14:30:17;13.80;92.00
17994;DHT22;9122;48.406;9.984;2022-11-15T14:33:11;13.80;92.20
17994;DHT22;9122;48.406;9.984;2022-11-15T14:38:48;13.80;92.30
17994;DHT22;9122;48.406;9.984;2022-11-15T14:41:35;13.80;92.40
17994;DHT22;9122;48.406;9.984;2022-11-15T14:44:22;13.80;92.40
17994;DHT22;9122;48.406;9.984;2022-11-15T14:47:06;13.80;92.40
17994;DHT22;9122;48.406;9.984;2022-11-15T14:49:50;13.70;92.40
17994;DHT22;9122;48.406;9.984;2022-11-15T14:52:35;13.70;92.40
17994;DHT22;9122;48.406;9.984;2022-11-15T14:55:21;13.70;92.50
17994;DHT22;9122;48.406;9.984;2022-11-15T14:58:06;13.70;92.70
17994;DHT22;9122;48.406;9.984;2022-11-15T15:00:54;13.70;92.80
17994;DHT22;9122;48.406;9.984;2022-11-15T15:03:38;13.70;92.90
17994;DHT22;9122;48.406;9.984;2022-11-15T15:06:23;13.70;93.00
17994;DHT22;9122;48.406;9.984;2022-11-15T15:09:08;13.70;93.10
17994;DHT22;9122;48.406;9.984;2022-11-15T15:11:52;13.60;93.10
17994;DHT22;9122;48.406;9.984;2022-11-15T15:14:38;13.60;93.20
17994;DHT22;9122;48.406;9.984;2022-11-15T15:17:23;13.60;93.20
17994;DHT22;9122;48.406;9.984;2022-11-15T15:20:09;13.60;93.20
17994;DHT22;9122;48.406;9.984;2022-11-15T15:22:54;13.60;93.20
17994;DHT22;9122;48.406;9.984;2022-11-15T15:25:39;13.60;93.20
17994;DHT22;9122;48.406;9.984;2022-11-15T15:28:24;13.60;93.30
17994;DHT22;9122;48.406;9.984;2022-11-15T15:31:09;13.60;93.30
17994;DHT22;9122;48.406;9.984;2022-11-15T15:33:54;13.60;93.40
17994;DHT22;9122;48.406;9.984;2022-11-15T15:36:39;13.60;93.40
17994;DHT22;9122;48.406;9.984;2022-11-15T15:39:23;13.50;93.70
17994;DHT22;9122;48.406;9.984;2022-11-15T15:42:07;13.50;93.50
17994;DHT22;9122;48.406;9.984;2022-11-15T15:44:52;13.50;93.70
17994;DHT22;9122;48.406;9.984;2022-11-15T15:47:36;13.50;93.60
17994;DHT22;9122;48.406;9.984;2022-11-15T15:53:06;13.50;93.60
17994;DHT22;9122;48.406;9.984;2022-11-15T15:55:52;13.50;93.70
17994;DHT22;9122;48.406;9.984;2022-11-15T15:58:36;13.50;93.80
17994;DHT22;9122;48.406;9.984;2022-11-15T16:01:21;13.50;93.80
17994;DHT22;9122;48.406;9.984;2022-11-15T16:04:06;13.50;93.90
17994;DHT22;9122;48.406;9.984;2022-11-15T16:06:50;13.40;93.90
17994;DHT22;9122;48.406;9.984;2022-11-15T16:09:36;13.50;93.90
17994;DHT22;9122;48.406;9.984;2022-11-15T16:12:59;13.40;93.80
17994;DHT22;9122;48.406;9.984;2022-11-15T16:15:43;13.40;93.90
17994;DHT22;9122;48.406;9.984;2022-11-15T16:18:28;13.40;94.00
17994;DHT22;9122;48.406;9.984;2022-11-15T16:21:13;13.40;94.10
17994;DHT22;9122;48.406;9.984;2022-11-15T16:23:57;13.40;94.10
17994;DHT22;9122;48.406;9.984;2022-11-15T16:26:41;13.40;94.20
17994;DHT22;9122;48.406;9.984;2022-11-15T16:29:25;13.40;94.10
17994;DHT22;9122;48.406;9.984;2022-11-15T16:32:10;13.30;94.10
17994;DHT22;9122;48.406;9.984;2022-11-15T16:34:55;13.30;94.20
17994;DHT22;9122;48.406;9.984;2022-11-15T16:37:42;13.30;94.20
17994;DHT22;9122;48.406;9.984;2022-11-15T16:40:30;13.30;94.30
17994;DHT22;9122;48.406;9.984;2022-11-15T16:43:15;13.30;94.30
17994;DHT22;9122;48.406;9.984;2022-11-15T16:46:08;13.30;94.30
17994;DHT22;9122;48.406;9.984;2022-11-15T16:48:53;13.30;94.40
17994;DHT22;9122;48.406;9.984;2022-11-15T16:51:37;13.20;94.40
17994;DHT22;9122;48.406;9.984;2022-11-15T16:54:22;13.20;94.40
17994;DHT22;9122;48.406;9.984;2022-11-15T16:57:09;13.20;94.40
17994;DHT22;9122;48.406;9.984;2022-11-15T16:59:53;13.20;94.50
17994;DHT22;9122;48.406;9.984;2022-11-15T17:02:37;13.20;94.50
17994;DHT22;9122;48.406;9.984;2022-11-15T17:05:23;13.20;94.40
17994;DHT22;9122;48.406;9.984;2022-11-15T17:08:07;13.20;94.40
17994;DHT22;9122;48.406;9.984;2022-11-15T17:10:51;13.30;94.40
17994;DHT22;9122;48.406;9.984;2022-11-15T17:13:36;13.20;94.40
17994;DHT22;9122;48.406;9.984;2022-11-15T17:16:21;13.20;94.40
17994;DHT22;9122;48.406;9.984;2022-11-15T17:19:05;13.20;94.50
17994;DHT22;9122;48.406;9.984;2022-11-15T17:21:50;13.20;94.50
17994;DHT22;9122;48.406;9.984;2022-11-15T17:24:34;13.10;94.80
17994;DHT22;9122;48.406;9.984;2022-11-15T17:27:19;13.10;94.50
17994;DHT22;9122;48.406;9.984;2022-11-15T17:30:05;13.10;94.50
17994;DHT22;9122;48.406;9.984;2022-11-15T17:33:01;13.10;94.60
17994;DHT22;9122;48.406;9.984;2022-11-15T17:35:56;13.10;94.60
17994;DHT22;9122;48.406;9.984;2022-11-15T17:38:41;13.10;94.70
17994;DHT22;9122;48.406;9.984;2022-11-15T17:41:26;13.10;94.70
17994;DHT22;9122;48.406;9.984;2022-11-15T17:44:11;13.10;94.70
17994;DHT22;9122;48.406;9.984;2022-11-15T17:46:55;13.00;94.60
17994;DHT22;9122;48.406;9.984;2022-11-15T17:49:40;13.00;94.60
17994;DHT22;9122;48.406;9.984;2022-11-15T17:52:24;13.00;94.60
17994;DHT22;9122;48.406;9.984;2022-11-15T17:55:09;13.00;94.60
17994;DHT22;9122;48.406;9.984;2022-11-15T17:57:53;13.00;94.60
17994;DHT22;9122;48.406;9.984;2022-11-15T18:00:49;13.00;94.60
17994;DHT22;9122;48.406;9.984;2022-11-15T18:03:36;13.00;94.90
17994;DHT22;9122;48.406;9.984;2022-11-15T18:06:22;13.00;94.60
17994;DHT22;9122;48.406;9.984;2022-11-15T18:09:07;13.00;94.60
17994;DHT22;9122;48.406;9.984;2022-11-15T18:11:52;12.90;94.60
17994;DHT22;9122;48.406;9.984;2022-11-15T18:14:37;12.90;94.60
17994;DHT22;9122;48.406;9.984;2022-11-15T18:17:27;12.90;94.50
17994;DHT22;9122;48.406;9.984;2022-11-15T18:20:11;12.90;94.50
17994;DHT22;9122;48.406;9.984;2022-11-15T18:22:56;12.90;94.50
17994;DHT22;9122;48.406;9.984;2022-11-15T18:25:41;12.90;94.60
17994;DHT22;9122;48.406;9.984;2022-11-15T18:28:37;12.90;94.60
17994;DHT22;9122;48.406;9.984;2022-11-15T18:31:26;12.90;94.60
17994;DHT22;9122;48.406;9.984;2022-11-15T18:34:11;12.90;94.50
17994;DHT22;9122;48.406;9.984;2022-11-15T18:36:58;12.90;94.50
17994;DHT22;9122;48.406;9.984;2022-11-15T18:39:42;13.00;94.50
17994;DHT22;9122;48.406;9.984;2022-11-15T18:42:26;12.80;94.50
17994;DHT22;9122;48.406;9.984;2022-11-15T18:45:13;12.80;94.50
17994;DHT22;9122;48.406;9.984;2022-11-15T18:47:58;12.80;94.60
17994;DHT22;9122;48.406;9.984;2022-11-15T18:50:42;12.80;94.70
17994;DHT22;9122;48.406;9.984;2022-11-15T18:53:27;12.80;94.80
17994;DHT22;9122;48.406;9.984;2022-11-15T18:56:16;12.80;94.90
17994;DHT22;9122;48.406;9.984;2022-11-15T18:59:02;12.80;95.00
17994;DHT22;9122;48.406;9.984;2022-11-15T19:01:47;12.80;95.10
17994;DHT22;9122;48.406;9.984;2022-11-15T19:04:31;12.80;95.20
17994;DHT22;9122;48.406;9.984;2022-11-15T19:07:16;12.70;95.20
17994;DHT22;9122;48.406;9.984;2022-11-15T19:10:00;12.70;95.20
17994;DHT22;9122;48.406;9.984;2022-11-15T19:12:44;12.70;95.10
17994;DHT22;9122;48.406;9.984;2022-11-15T19:15:30;12.70;95.10
17994;DHT22;9122;48.406;9.984;2022-11-15T19:18:14;12.70;95.10
17994;DHT22;9122;48.406;9.984;2022-11-15T19:21:03;12.70;95.00
17994;DHT22;9122;48.406;9.984;2022-11-15T19:23:48;12.60;94.90
17994;DHT22;9122;48.406;9.984;2022-11-15T19:26:33;12.60;94.80
17994;DHT22;9122;48.406;9.984;2022-11-15T19:29:22;12.70;94.80
17994;DHT22;9122;48.406;9.984;2022-11-15T19:32:11;12.60;94.70
17994;DHT22;9122;48.406;9.984;2022-11-15T19:34:56;12.60;94.70
17994;DHT22;9122;48.406;9.984;2022-11-15T19:37:41;12.60;94.80
17994;DHT22;9122;48.406;9.984;2022-11-15T19:40:32;12.60;95.00
17994;DHT22;9122;48.406;9.984;2022-11-15T19:43:16;12.60;94.80
17994;DHT22;9122;48.406;9.984;2022-11-15T19:46:02;12.50;94.80
17994;DHT22;9122;48.406;9.984;2022-11-15T19:48:50;12.50;94.80
17994;DHT22;9122;48.406;9.984;2022-11-15T19:51:34;12.50;94.70
17994;DHT22;9122;48.406;9.984;2022-11-15T19:54:19;12.50;94.70
17994;DHT22;9122;48.406;9.984;2022-11-15T19:57:03;12.40;94.70
17994;DHT22;9122;48.406;9.984;2022-11-15T19:59:47;12.40;94.80
17994;DHT22;9122;48.406;9.984;2022-11-15T20:02:31;12.40;94.80
17994;DHT22;9122;48.406;9.984;2022-11-15T20:05:16;12.40;94.90
17994;DHT22;9122;48.406;9.984;2022-11-15T20:08:02;12.40;94.90
17994;DHT22;9122;48.406;9.984;2022-11-15T20:10:47;12.40;94.90
17994;DHT22;9122;48.406;9.984;2022-11-15T20:13:32;12.40;94.90
17994;DHT22;9122;48.406;9.984;2022-11-15T20:16:21;12.30;94.80
17994;DHT22;9122;48.406;9.984;2022-11-15T20:19:05;12.40;94.80
17994;DHT22;9122;48.406;9.984;2022-11-15T20:21:51;12.30;94.70
17994;DHT22;9122;48.406;9.984;2022-11-15T20:24:35;12.40;94.80
17994;DHT22;9122;48.406;9.984;2022-11-15T20:27:19;12.30;94.70
17994;DHT22;9122;48.406;9.984;2022-11-15T20:30:04;12.30;94.80
17994;DHT22;9122;48.406;9.984;2022-11-15T20:32:49;12.30;94.70
17994;DHT22;9122;48.406;9.984;2022-11-15T20:35:33;12.30;94.70
17994;DHT22;9122;48.406;9.984;2022-11-15T20:38:17;12.30;94.60
17994;DHT22;9122;48.406;9.984;2022-11-15T20:41:02;12.20;94.60
17994;DHT22;9122;48.406;9.984;2022-11-15T20:43:47;12.20;94.60
17994;DHT22;9122;48.406;9.984;2022-11-15T20:46:31;12.20;94.60
17994;DHT22;9122;48.406;9.984;2022-11-15T20:49:16;12.10;94.70
17994;DHT22;9122;48.406;9.984;2022-11-15T20:52:00;12.10;94.70
17994;DHT22;9122;48.406;9.984;2022-11-15T20:54:44;12.10;94.80
17994;DHT22;9122;48.406;9.984;2022-11-15T20:57:28;11.90;94.70
17994;DHT22;9122;48.406;9.984;2022-11-15T21:00:13;12.10;94.80
17994;DHT22;9122;48.406;9.984;2022-11-15T21:02:57;12.10;94.80
17994;DHT22;9122;48.406;9.984;2022-11-15T21:05:42;12.10;94.80
17994;DHT22;9122;48.406;9.984;2022-11-15T21:08:27;12.10;94.80
17994;DHT22;9122;48.406;9.984;2022-11-15T21:11:11;12.10;94.80
17994;DHT22;9122;48.406;9.984;2022-11-15T21:14:15;12.00;94.70
17994;DHT22;9122;48.406;9.984;2022-11-15T21:16:59;12.00;94.70
17994;DHT22;9122;48.406;9.984;2022-11-15T21:19:44;12.00;94.70
17994;DHT22;9122;48.406;9.984;2022-11-15T21:22:28;12.00;94.70
17994;DHT22;9122;48.406;9.984;2022-11-15T21:25:12;11.90;94.80
17994;DHT22;9122;48.406;9.984;2022-11-15T21:27:57;11.90;94.80
17994;DHT22;9122;48.406;9.984;2022-11-15T21:30:41;11.90;94.90
17994;DHT22;9122;48.406;9.984;2022-11-15T21:33:26;11.90;95.00
17994;DHT22;9122;48.406;9.984;2022-11-15T21:36:10;11.90;94.90
17994;DHT22;9122;48.406;9.984;2022-11-15T21:38:54;11.90;94.90
17994;DHT22;9122;48.406;9.984;2022-11-15T21:41:39;11.90;94.90
17994;DHT22;9122;48.406;9.984;2022-11-15T21:44:23;11.90;94.90
17994;DHT22;9122;48.406;9.984;2022-11-15T21:47:07;11.90;94.90
17994;DHT22;9122;48.406;9.984;2022-11-15T21:49:52;11.90;94.90
17994;DHT22;9122;48.406;9.984;2022-11-15T21:52:35;11.80;94.80
17994;DHT22;9122;48.406;9.984;2022-11-15T21:55:20;11.80;94.90
17994;DHT22;9122;48.406;9.984;2022-11-15T21:58:05;11.80;94.80
17994;DHT22;9122;48.406;9.984;2022-11-15T22:00:49;11.80;94.80
17994;DHT22;9122;48.406;9.984;2022-11-15T22:03:52;11.80;94.80
17994;DHT22;9122;48.406;9.984;2022-11-15T22:06:37;11.80;94.80
17994;DHT22;9122;48.406;9.984;2022-11-15T22:09:22;11.80;94.80
17994;DHT22;9122;48.406;9.984;2022-11-15T22:12:07;11.70;94.80
17994;DHT22;9122;48.406;9.984;2022-11-15T22:14:51;11.70;94.80
17994;DHT22;9122;48.406;9.984;2022-11-15T22:17:35;11.70;94.90
17994;DHT22;9122;48.406;9.984;2022-11-15T22:20:39;11.70;94.80
17994;DHT22;9122;48.406;9.984;2022-11-15T22:23:25;11.70;94.80
17994;DHT22;9122;48.406;9.984;2022-11-15T22:26:15;11.70;94.80
17994;DHT22;9122;48.406;9.984;2022-11-15T22:28:59;11.60;94.90
17994;DHT22;9122;48.406;9.984;2022-11-15T22:31:44;11.60;94.90
17994;DHT22;9122;48.406;9.984;2022-11-15T22:34:29;11.60;94.90
17994;DHT22;9122;48.406;9.984;2022-11-15T22:37:13;11.60;94.90
17994;DHT22;9122;48.406;9.984;2022-11-15T22:39:58;11.60;95.00
17994;DHT22;9122;48.406;9.984;2022-11-15T22:42:43;11.60;95.00
17994;DHT22;9122;48.406;9.984;2022-11-15T22:45:28;11.60;94.90
17994;DHT22;9122;48.406;9.984;2022-11-15T22:48:14;11.60;94.90
17994;DHT22;9122;48.406;9.984;2022-11-15T22:50:59;11.60;94.90
17994;DHT22;9122;48.406;9.984;2022-11-15T22:53:44;11.60;94.90
17994;DHT22;9122;48.406;9.984;2022-11-15T22:56:28;11.60;94.90
17994;DHT22;9122;48.406;9.984;2022-11-15T22:59:13;11.60;94.90
17994;DHT22;9122;48.406;9.984;2022-11-15T23:01:57;11.50;95.00
17994;DHT22;9122;48.406;9.984;2022-11-15T23:04:42;11.50;95.00
17994;DHT22;9122;48.406;9.984;2022-11-15T23:07:28;11.50;95.00
17994;DHT22;9122;48.406;9.984;2022-11-15T23:10:15;11.60;95.00
17994;DHT22;9122;48.406;9.984;2022-11-15T23:13:19;11.60;95.10
17994;DHT22;9122;48.406;9.984;2022-11-15T23:16:07;11.50;95.10
17994;DHT22;9122;48.406;9.984;2022-11-15T23:19:08;11.50;95.00
17994;DHT22;9122;48.406;9.984;2022-11-15T23:21:53;11.50;95.10
17994;DHT22;9122;48.406;9.984;2022-11-15T23:24:56;11.50;95.10
17994;DHT22;9122;48.406;9.984;2022-11-15T23:27:42;11.50;95.20
17994;DHT22;9122;48.406;9.984;2022-11-15T23:30:27;11.50;95.30
17994;DHT22;9122;48.406;9.984;2022-11-15T23:33:30;11.50;95.30
17994;DHT22;9122;48.406;9.984;2022-11-15T23:36:33;11.50;95.30
17994;DHT22;9122;48.406;9.984;2022-11-15T23:39:18;11.40;95.30
17994;DHT22;9122;48.406;9.984;2022-11-15T23:42:02;11.50;95.30
17994;DHT22;9122;48.406;9.984;2022-11-15T23:44:47;11.40;95.70
17994;DHT22;9122;48.406;9.984;2022-11-15T23:47:34;11.40;95.40
17994;DHT22;9122;48.406;9.984;2022-11-15T23:50:18;11.40;95.50
17994;DHT22;9122;48.406;9.984;2022-11-15T23:53:03;11.40;95.60
17994;DHT22;9122;48.406;9.984;2022-11-15T23:56:00;11.40;95.70
17994;DHT22;9122;48.406;9.984;2022-11-15T23:58:46;11.40;95.70
